TAM8087 KLAX-SBGR
Flight info
| Callsign | TAM8087 |
|---|---|
| Flight time | N/A |
| Altitude | 35000 |
| Route | PNDAH2 TCATE DCT PPE UL655 ASOKU/N0494F370 UL655 ASAPA/N0488F390 UL655 DIKAL UZ52 PUMRO UZ42 ZARES |
| Aircraft | B789/H-SDE1E2E3FGHIJ2J3J4J5M1RWXY/LB1D1 |
Departure
| Time | 2026-04-25 06:23 |
|---|---|
| Airport | Los Angeles International Airport (KLAX) |
Arrival
| Time | N/A |
|---|---|
| Airport | São Paulo/Guarulhos–Governor André Franco Montoro International Airport (SBGR) |
| Time | Latitude | Longitude | Altitude | Speed | Heading |
|---|---|---|---|---|---|
| 2026-04-25 06:02 | 33.94541 | -118.41003 | 98 ft | 0 kts | 263° |
| 2026-04-25 06:12 | 33.94542 | -118.40996 | 99 ft | 2 kts | 262° |
| 2026-04-25 06:13 | 33.94544 | -118.40976 | 97 ft | 2 kts | 265° |
| 2026-04-25 06:13 | 33.94545 | -118.40956 | 98 ft | 2 kts | 268° |
| 2026-04-25 06:13 | 33.94544 | -118.40936 | 99 ft | 2 kts | 272° |
| 2026-04-25 06:14 | 33.94537 | -118.40898 | 97 ft | 2 kts | 301° |
| 2026-04-25 06:14 | 33.94525 | -118.40885 | 97 ft | 2 kts | 341° |
| 2026-04-25 06:14 | 33.94519 | -118.40883 | 97 ft | 0 kts | 350° |
| 2026-04-25 06:18 | 33.94522 | -118.40884 | 97 ft | 1 kts | 351° |
| 2026-04-25 06:18 | 33.94535 | -118.40886 | 96 ft | 5 kts | 352° |
| 2026-04-25 06:18 | 33.94603 | -118.40896 | 101 ft | 14 kts | 354° |
| 2026-04-25 06:19 | 33.94695 | -118.40908 | 99 ft | 13 kts | 354° |
| 2026-04-25 06:19 | 33.94771 | -118.40889 | 99 ft | 10 kts | 17° |
| 2026-04-25 06:19 | 33.94830 | -118.40858 | 102 ft | 9 kts | 55° |
| 2026-04-25 06:19 | 33.94845 | -118.40778 | 99 ft | 13 kts | 82° |
| 2026-04-25 06:20 | 33.94860 | -118.40635 | 99 ft | 22 kts | 83° |
| 2026-04-25 06:20 | 33.94878 | -118.40455 | 102 ft | 21 kts | 83° |
| 2026-04-25 06:20 | 33.94895 | -118.40286 | 99 ft | 19 kts | 83° |
| 2026-04-25 06:20 | 33.94911 | -118.40131 | 99 ft | 18 kts | 83° |
| 2026-04-25 06:21 | 33.94927 | -118.39982 | 98 ft | 18 kts | 81° |
| 2026-04-25 06:21 | 33.95004 | -118.39912 | 99 ft | 14 kts | 356° |
| 2026-04-25 06:21 | 33.95042 | -118.39956 | 101 ft | 5 kts | 264° |
| 2026-04-25 06:21 | 33.95041 | -118.39968 | 102 ft | 0 kts | 262° |
| 2026-04-25 06:22 | 33.95040 | -118.39979 | 102 ft | 7 kts | 262° |
| 2026-04-25 06:22 | 33.95011 | -118.40247 | 104 ft | 62 kts | 263° |
| 2026-04-25 06:22 | 33.94934 | -118.41008 | 102 ft | 119 kts | 263° |
| 2026-04-25 06:23 | 33.94812 | -118.42202 | 101 ft | 166 kts | 263° |
| 2026-04-25 06:23 | 33.94676 | -118.43668 | 403 ft | 174 kts | 267° |
| 2026-04-25 06:23 | 33.94560 | -118.45075 | 1070 ft | 170 kts | 264° |
| 2026-04-25 06:23 | 33.94438 | -118.46531 | 1623 ft | 177 kts | 263° |
| 2026-04-25 06:24 | 33.94341 | -118.48004 | 2265 ft | 178 kts | 268° |
| 2026-04-25 06:24 | 33.94281 | -118.49555 | 2486 ft | 194 kts | 267° |
| 2026-04-25 06:24 | 33.94177 | -118.51248 | 2759 ft | 213 kts | 264° |
| 2026-04-25 06:24 | 33.94039 | -118.53071 | 3209 ft | 222 kts | 265° |
| 2026-04-25 06:25 | 33.93909 | -118.54929 | 3923 ft | 223 kts | 265° |
| 2026-04-25 06:25 | 33.93764 | -118.56816 | 4467 ft | 234 kts | 265° |
| 2026-04-25 06:25 | 33.93600 | -118.58884 | 4644 ft | 263 kts | 265° |
| 2026-04-25 06:25 | 33.93220 | -118.61121 | 5093 ft | 279 kts | 241° |
| 2026-04-25 06:26 | 33.92036 | -118.62917 | 6139 ft | 276 kts | 223° |
| 2026-04-25 06:26 | 33.90308 | -118.63955 | 6882 ft | 285 kts | 194° |
| 2026-04-25 06:26 | 33.88351 | -118.64009 | 7739 ft | 285 kts | 174° |
| 2026-04-25 06:26 | 33.86352 | -118.63812 | 8453 ft | 291 kts | 181° |
| 2026-04-25 06:27 | 33.84326 | -118.63610 | 9249 ft | 297 kts | 163° |
| 2026-04-25 06:27 | 33.82466 | -118.62458 | 9985 ft | 305 kts | 152° |
| 2026-04-25 06:27 | 33.80659 | -118.61050 | 10473 ft | 320 kts | 148° |
| 2026-04-25 06:27 | 33.78764 | -118.59441 | 10565 ft | 347 kts | 148° |
| 2026-04-25 06:28 | 33.76739 | -118.57756 | 11168 ft | 354 kts | 149° |
| 2026-04-25 06:28 | 33.74678 | -118.56096 | 11888 ft | 360 kts | 150° |
| 2026-04-25 06:28 | 33.72576 | -118.54410 | 12583 ft | 366 kts | 150° |
| 2026-04-25 06:28 | 33.70494 | -118.52607 | 13300 ft | 374 kts | 140° |
| 2026-04-25 06:29 | 33.68865 | -118.50110 | 13972 ft | 388 kts | 122° |
| 2026-04-25 06:29 | 33.67598 | -118.47214 | 14568 ft | 394 kts | 121° |
| 2026-04-25 06:29 | 33.66374 | -118.44295 | 15254 ft | 398 kts | 120° |
| 2026-04-25 06:29 | 33.65113 | -118.41318 | 15889 ft | 402 kts | 121° |
| 2026-04-25 06:30 | 33.63814 | -118.38326 | 16524 ft | 406 kts | 121° |
| 2026-04-25 06:30 | 33.62502 | -118.35306 | 17153 ft | 411 kts | 121° |
| 2026-04-25 06:30 | 33.61183 | -118.32238 | 17751 ft | 415 kts | 121° |
| 2026-04-25 06:30 | 33.59854 | -118.29143 | 18374 ft | 419 kts | 121° |
| 2026-04-25 06:31 | 33.58503 | -118.26017 | 18925 ft | 423 kts | 121° |
| 2026-04-25 06:31 | 33.57145 | -118.22881 | 19465 ft | 426 kts | 121° |
| 2026-04-25 06:31 | 33.55780 | -118.19727 | 20062 ft | 427 kts | 121° |
| 2026-04-25 06:31 | 33.54408 | -118.16554 | 20600 ft | 430 kts | 121° |
| 2026-04-25 06:32 | 33.53025 | -118.13362 | 21125 ft | 433 kts | 121° |
| 2026-04-25 06:32 | 33.51639 | -118.10139 | 21636 ft | 436 kts | 120° |
| 2026-04-25 06:32 | 33.50256 | -118.06911 | 22149 ft | 439 kts | 121° |
| 2026-04-25 06:32 | 33.48847 | -118.03639 | 22580 ft | 444 kts | 121° |
| 2026-04-25 06:33 | 33.47390 | -118.00430 | 23036 ft | 443 kts | 128° |
| 2026-04-25 06:33 | 33.45449 | -117.97593 | 23499 ft | 439 kts | 141° |
| 2026-04-25 06:33 | 33.43176 | -117.95156 | 23855 ft | 441 kts | 143° |
| 2026-04-25 06:33 | 33.40882 | -117.92705 | 24225 ft | 443 kts | 143° |
| 2026-04-25 06:34 | 33.38571 | -117.90247 | 24632 ft | 445 kts | 143° |
| 2026-04-25 06:34 | 33.36245 | -117.87785 | 24977 ft | 448 kts | 143° |
| 2026-04-25 06:34 | 33.33904 | -117.85307 | 25326 ft | 451 kts | 143° |
| 2026-04-25 06:34 | 33.31543 | -117.82803 | 25669 ft | 454 kts | 143° |
| 2026-04-25 06:35 | 33.29169 | -117.80287 | 26006 ft | 457 kts | 144° |
| 2026-04-25 06:35 | 33.26777 | -117.77757 | 26347 ft | 460 kts | 144° |
| 2026-04-25 06:35 | 33.24370 | -117.75215 | 26672 ft | 463 kts | 144° |
| 2026-04-25 06:35 | 33.21948 | -117.72657 | 26992 ft | 466 kts | 144° |
| 2026-04-25 06:36 | 33.19514 | -117.70086 | 27318 ft | 469 kts | 143° |
| 2026-04-25 06:36 | 33.17274 | -117.67201 | 27613 ft | 480 kts | 131° |
| 2026-04-25 06:36 | 33.15493 | -117.63779 | 27913 ft | 491 kts | 119° |
| 2026-04-25 06:36 | 33.14229 | -117.59960 | 28147 ft | 499 kts | 113° |
| 2026-04-25 06:37 | 33.13071 | -117.56050 | 28449 ft | 502 kts | 113° |
| 2026-04-25 06:37 | 33.11931 | -117.52152 | 28715 ft | 505 kts | 113° |
| 2026-04-25 06:37 | 33.10768 | -117.48183 | 29020 ft | 508 kts | 113° |
| 2026-04-25 06:37 | 33.09588 | -117.44198 | 29287 ft | 511 kts | 113° |
| 2026-04-25 06:38 | 33.08405 | -117.40214 | 29551 ft | 513 kts | 113° |
| 2026-04-25 06:38 | 33.07215 | -117.36187 | 29829 ft | 516 kts | 113° |
| 2026-04-25 06:38 | 33.06017 | -117.32135 | 30044 ft | 520 kts | 114° |
| 2026-04-25 06:38 | 33.05215 | -117.29433 | 30200 ft | 521 kts | 114° |
| 2026-04-25 06:39 | 33.03997 | -117.25338 | 30453 ft | 524 kts | 114° |
| 2026-04-25 06:39 | 33.02778 | -117.21244 | 30673 ft | 526 kts | 114° |
| 2026-04-25 06:39 | 33.01552 | -117.17124 | 30896 ft | 528 kts | 114° |
| 2026-04-25 06:39 | 32.99915 | -117.11638 | 31176 ft | 532 kts | 114° |
| 2026-04-25 06:40 | 32.99077 | -117.08832 | 31319 ft | 533 kts | 114° |
| 2026-04-25 06:40 | 32.97830 | -117.04666 | 31530 ft | 535 kts | 114° |
| 2026-04-25 06:40 | 32.96577 | -117.00484 | 31738 ft | 537 kts | 114° |
| 2026-04-25 06:40 | 32.95316 | -116.96279 | 31948 ft | 539 kts | 114° |
| 2026-04-25 06:41 | 32.94065 | -116.92116 | 32140 ft | 542 kts | 114° |
| 2026-04-25 06:41 | 32.92792 | -116.87883 | 32313 ft | 544 kts | 114° |
| 2026-04-25 06:41 | 32.91514 | -116.83642 | 32550 ft | 545 kts | 114° |
| 2026-04-25 06:41 | 32.90231 | -116.79386 | 32742 ft | 547 kts | 114° |
| 2026-04-25 06:42 | 32.88943 | -116.75122 | 32982 ft | 548 kts | 114° |
| 2026-04-25 06:42 | 32.87643 | -116.70829 | 33095 ft | 551 kts | 115° |
| 2026-04-25 06:42 | 32.86342 | -116.66533 | 33294 ft | 553 kts | 115° |
| 2026-04-25 06:42 | 32.85035 | -116.62224 | 33460 ft | 555 kts | 115° |
| 2026-04-25 06:43 | 32.83719 | -116.57891 | 33647 ft | 557 kts | 115° |
| 2026-04-25 06:43 | 32.82400 | -116.53558 | 33781 ft | 559 kts | 115° |
| 2026-04-25 06:43 | 32.81060 | -116.49195 | 33903 ft | 560 kts | 118° |
| 2026-04-25 06:43 | 32.79402 | -116.45100 | 34084 ft | 553 kts | 123° |
| 2026-04-25 06:44 | 32.77637 | -116.41037 | 34307 ft | 553 kts | 123° |
| 2026-04-25 06:44 | 32.75903 | -116.37022 | 34484 ft | 553 kts | 123° |
| 2026-04-25 06:44 | 32.74137 | -116.32955 | 34689 ft | 553 kts | 123° |
| 2026-04-25 06:44 | 32.72364 | -116.28899 | 34869 ft | 553 kts | 123° |
| 2026-04-25 06:45 | 32.70590 | -116.24837 | 34937 ft | 557 kts | 124° |
| 2026-04-25 06:45 | 32.67001 | -116.16607 | 34972 ft | 565 kts | 124° |
| 2026-04-25 06:46 | 32.63352 | -116.08274 | 34931 ft | 571 kts | 124° |
| 2026-04-25 06:46 | 32.59703 | -115.99947 | 34939 ft | 573 kts | 124° |
| 2026-04-25 06:47 | 32.56010 | -115.91554 | 34933 ft | 575 kts | 124° |
| 2026-04-25 06:47 | 32.52299 | -115.83129 | 34916 ft | 575 kts | 124° |
| 2026-04-25 06:48 | 32.48594 | -115.74744 | 34900 ft | 573 kts | 124° |
| 2026-04-25 06:48 | 32.44897 | -115.66393 | 34887 ft | 572 kts | 124° |
| 2026-04-25 06:49 | 32.41221 | -115.58111 | 34845 ft | 572 kts | 124° |
| 2026-04-25 06:49 | 32.37527 | -115.49809 | 34827 ft | 575 kts | 124° |
| 2026-04-25 06:50 | 32.33803 | -115.41451 | 34833 ft | 574 kts | 124° |
| 2026-04-25 06:50 | 32.30073 | -115.33108 | 34829 ft | 573 kts | 124° |
| 2026-04-25 06:51 | 32.26337 | -115.24763 | 34821 ft | 574 kts | 124° |
| 2026-04-25 06:51 | 32.22589 | -115.16416 | 34820 ft | 574 kts | 124° |
| 2026-04-25 06:52 | 32.18845 | -115.08095 | 34821 ft | 573 kts | 124° |
| 2026-04-25 06:52 | 32.15119 | -114.99832 | 34821 ft | 573 kts | 124° |
| 2026-04-25 06:53 | 32.11375 | -114.91546 | 34815 ft | 571 kts | 124° |
| 2026-04-25 06:53 | 32.07623 | -114.83267 | 34813 ft | 572 kts | 124° |
| 2026-04-25 06:54 | 32.03871 | -114.75002 | 34819 ft | 572 kts | 124° |
| 2026-04-25 06:54 | 32.00133 | -114.66788 | 34818 ft | 572 kts | 124° |
| 2026-04-25 06:55 | 31.96366 | -114.58526 | 34827 ft | 572 kts | 124° |
| 2026-04-25 06:55 | 31.92596 | -114.50281 | 34832 ft | 572 kts | 124° |
| 2026-04-25 06:56 | 31.88818 | -114.42032 | 34832 ft | 572 kts | 124° |
| 2026-04-25 06:56 | 31.85031 | -114.33787 | 34837 ft | 573 kts | 124° |
| 2026-04-25 06:57 | 31.81229 | -114.25523 | 34840 ft | 575 kts | 124° |
| 2026-04-25 06:57 | 31.77423 | -114.17267 | 34835 ft | 574 kts | 124° |
| 2026-04-25 06:58 | 31.73610 | -114.09021 | 34828 ft | 574 kts | 124° |
| 2026-04-25 06:58 | 31.69794 | -114.00780 | 34837 ft | 574 kts | 124° |
| 2026-04-25 06:59 | 31.65986 | -113.92581 | 34838 ft | 576 kts | 124° |
| 2026-04-25 06:59 | 31.62144 | -113.84321 | 34809 ft | 575 kts | 124° |
| 2026-04-25 07:00 | 31.58313 | -113.76104 | 34827 ft | 572 kts | 125° |
| 2026-04-25 07:00 | 31.54486 | -113.67918 | 34835 ft | 573 kts | 125° |
| 2026-04-25 07:01 | 31.50649 | -113.59723 | 34839 ft | 573 kts | 125° |
| 2026-04-25 07:01 | 31.46828 | -113.51585 | 34840 ft | 574 kts | 125° |
| 2026-04-25 07:02 | 31.42979 | -113.43399 | 34841 ft | 573 kts | 125° |
| 2026-04-25 07:02 | 31.39129 | -113.35232 | 34849 ft | 572 kts | 125° |
| 2026-04-25 07:03 | 31.35155 | -113.27202 | 34846 ft | 568 kts | 128° |
| 2026-04-25 07:03 | 31.30985 | -113.19318 | 34848 ft | 569 kts | 128° |
| 2026-04-25 07:04 | 31.26822 | -113.11500 | 34855 ft | 569 kts | 128° |
| 2026-04-25 07:04 | 31.22630 | -113.03637 | 34852 ft | 570 kts | 128° |
| 2026-04-25 07:05 | 31.18435 | -112.95776 | 34857 ft | 570 kts | 128° |
| 2026-04-25 07:05 | 31.14235 | -112.87934 | 34856 ft | 569 kts | 128° |
| 2026-04-25 07:06 | 31.10036 | -112.80099 | 34857 ft | 569 kts | 128° |
| 2026-04-25 07:06 | 31.05827 | -112.72271 | 34859 ft | 569 kts | 128° |
| 2026-04-25 07:07 | 31.01640 | -112.64489 | 34859 ft | 570 kts | 128° |
| 2026-04-25 07:07 | 30.97418 | -112.56666 | 34861 ft | 570 kts | 128° |
| 2026-04-25 07:08 | 30.93188 | -112.48840 | 34861 ft | 570 kts | 128° |
| 2026-04-25 07:08 | 30.88957 | -112.41028 | 34864 ft | 570 kts | 128° |
| 2026-04-25 07:09 | 30.84720 | -112.33219 | 34853 ft | 570 kts | 128° |
| 2026-04-25 07:09 | 30.80482 | -112.25427 | 34850 ft | 570 kts | 128° |
| 2026-04-25 07:10 | 30.76238 | -112.17637 | 34849 ft | 570 kts | 128° |
| 2026-04-25 07:10 | 30.71988 | -112.09853 | 34858 ft | 570 kts | 129° |
| 2026-04-25 07:11 | 30.67725 | -112.02061 | 34822 ft | 572 kts | 129° |
| 2026-04-25 07:11 | 30.63460 | -111.94277 | 34846 ft | 570 kts | 129° |
| 2026-04-25 07:12 | 30.59205 | -111.86531 | 34848 ft | 569 kts | 129° |
| 2026-04-25 07:12 | 30.52842 | -111.74974 | 34844 ft | 570 kts | 129° |
| 2026-04-25 07:13 | 30.48555 | -111.67206 | 34862 ft | 572 kts | 129° |
| 2026-04-25 07:13 | 30.44266 | -111.59447 | 34855 ft | 571 kts | 129° |
| 2026-04-25 07:14 | 30.39978 | -111.51708 | 34860 ft | 570 kts | 129° |
| 2026-04-25 07:14 | 30.35696 | -111.43994 | 34865 ft | 569 kts | 129° |
| 2026-04-25 07:15 | 30.31442 | -111.36346 | 34861 ft | 568 kts | 129° |
| 2026-04-25 07:15 | 30.27162 | -111.28664 | 34854 ft | 568 kts | 129° |
| 2026-04-25 07:16 | 30.22866 | -111.20972 | 34882 ft | 570 kts | 129° |
| 2026-04-25 07:16 | 30.18554 | -111.13262 | 34883 ft | 571 kts | 129° |
| 2026-04-25 07:17 | 30.14240 | -111.05563 | 34885 ft | 570 kts | 129° |
| 2026-04-25 07:17 | 30.09933 | -110.97888 | 34886 ft | 568 kts | 128° |
| 2026-04-25 07:18 | 30.05655 | -110.90195 | 34878 ft | 569 kts | 128° |
| 2026-04-25 07:18 | 30.01346 | -110.82501 | 34885 ft | 571 kts | 128° |
| 2026-04-25 07:19 | 29.97068 | -110.74853 | 34878 ft | 570 kts | 128° |
| 2026-04-25 07:19 | 29.92763 | -110.67183 | 34881 ft | 568 kts | 128° |
| 2026-04-25 07:20 | 29.88457 | -110.59525 | 34891 ft | 569 kts | 128° |
| 2026-04-25 07:20 | 29.84145 | -110.51867 | 34889 ft | 570 kts | 128° |
| 2026-04-25 07:21 | 29.79826 | -110.44214 | 34895 ft | 569 kts | 128° |
| 2026-04-25 07:21 | 29.75510 | -110.36580 | 34902 ft | 570 kts | 128° |
| 2026-04-25 07:22 | 29.71172 | -110.28922 | 34905 ft | 572 kts | 128° |
| 2026-04-25 07:22 | 29.66853 | -110.21308 | 34904 ft | 571 kts | 128° |
| 2026-04-25 07:23 | 29.62509 | -110.13670 | 34905 ft | 569 kts | 128° |
| 2026-04-25 07:23 | 29.58170 | -110.06052 | 34918 ft | 570 kts | 129° |
| 2026-04-25 07:24 | 29.53828 | -109.98442 | 34918 ft | 569 kts | 129° |
| 2026-04-25 07:24 | 29.49479 | -109.90836 | 34914 ft | 569 kts | 129° |
| 2026-04-25 07:25 | 29.45158 | -109.83292 | 34911 ft | 569 kts | 129° |
| 2026-04-25 07:25 | 29.40804 | -109.75703 | 34901 ft | 569 kts | 129° |
| 2026-04-25 07:26 | 29.36447 | -109.68126 | 34905 ft | 569 kts | 129° |
| 2026-04-25 07:26 | 29.32087 | -109.60554 | 34902 ft | 569 kts | 129° |
| 2026-04-25 07:27 | 29.28452 | -109.54255 | 34903 ft | 570 kts | 129° |
| 2026-04-25 07:27 | 29.24068 | -109.46668 | 34909 ft | 568 kts | 129° |
| 2026-04-25 07:28 | 29.19688 | -109.39104 | 34914 ft | 569 kts | 129° |
| 2026-04-25 07:28 | 29.15313 | -109.31559 | 34916 ft | 569 kts | 129° |
| 2026-04-25 07:29 | 29.10961 | -109.24069 | 34925 ft | 569 kts | 129° |
| 2026-04-25 07:29 | 29.06575 | -109.16534 | 34933 ft | 569 kts | 129° |
| 2026-04-25 07:30 | 29.02178 | -109.08996 | 34933 ft | 571 kts | 129° |
| 2026-04-25 07:30 | 28.97769 | -109.01447 | 34952 ft | 570 kts | 129° |
| 2026-04-25 07:31 | 28.93356 | -108.93906 | 34975 ft | 569 kts | 129° |
| 2026-04-25 07:31 | 28.88957 | -108.86407 | 34965 ft | 570 kts | 129° |
| 2026-04-25 07:32 | 28.84570 | -108.78936 | 34970 ft | 570 kts | 129° |
| 2026-04-25 07:32 | 28.80208 | -108.71522 | 34990 ft | 567 kts | 129° |
| 2026-04-25 07:33 | 28.75817 | -108.64075 | 34986 ft | 566 kts | 129° |
| 2026-04-25 07:33 | 28.71414 | -108.56619 | 34996 ft | 568 kts | 129° |
| 2026-04-25 07:34 | 28.67003 | -108.49162 | 34997 ft | 567 kts | 129° |
| 2026-04-25 07:34 | 28.62604 | -108.41768 | 35002 ft | 567 kts | 129° |
| 2026-04-25 07:35 | 28.58176 | -108.34334 | 35005 ft | 567 kts | 129° |
| 2026-04-25 07:35 | 28.53750 | -108.26915 | 35005 ft | 566 kts | 129° |
| 2026-04-25 07:36 | 28.49317 | -108.19503 | 35009 ft | 567 kts | 129° |
| 2026-04-25 07:36 | 28.44876 | -108.12084 | 35023 ft | 568 kts | 129° |
| 2026-04-25 07:37 | 28.40459 | -108.04722 | 35020 ft | 567 kts | 129° |
| 2026-04-25 07:37 | 28.36021 | -107.97335 | 35027 ft | 566 kts | 129° |
| 2026-04-25 07:38 | 28.31579 | -107.89959 | 35023 ft | 566 kts | 129° |
| 2026-04-25 07:38 | 28.27135 | -107.82587 | 35044 ft | 567 kts | 129° |
| 2026-04-25 07:39 | 28.22672 | -107.75199 | 35036 ft | 566 kts | 129° |
| 2026-04-25 07:39 | 28.18219 | -107.67841 | 35055 ft | 566 kts | 129° |
| 2026-04-25 07:40 | 28.13760 | -107.60483 | 35045 ft | 566 kts | 129° |
| 2026-04-25 07:40 | 28.09291 | -107.53126 | 35028 ft | 566 kts | 129° |
| 2026-04-25 07:41 | 28.04855 | -107.45837 | 35046 ft | 565 kts | 129° |
| 2026-04-25 07:41 | 28.00391 | -107.38514 | 35055 ft | 565 kts | 129° |
| 2026-04-25 07:42 | 27.95916 | -107.31183 | 35020 ft | 566 kts | 129° |
| 2026-04-25 07:42 | 27.91432 | -107.23852 | 35021 ft | 566 kts | 129° |
| 2026-04-25 07:43 | 27.86957 | -107.16547 | 35025 ft | 565 kts | 129° |
| 2026-04-25 07:43 | 27.82485 | -107.09260 | 35028 ft | 562 kts | 129° |
| 2026-04-25 07:44 | 27.78056 | -107.02054 | 34993 ft | 563 kts | 129° |
| 2026-04-25 07:44 | 27.73572 | -106.94773 | 35003 ft | 565 kts | 129° |
| 2026-04-25 07:45 | 27.69076 | -106.87479 | 34983 ft | 565 kts | 129° |
| 2026-04-25 07:45 | 27.64582 | -106.80208 | 34983 ft | 564 kts | 129° |
| 2026-04-25 07:46 | 27.60092 | -106.72949 | 34985 ft | 563 kts | 129° |
| 2026-04-25 07:46 | 27.55630 | -106.65753 | 34995 ft | 565 kts | 129° |
| 2026-04-25 07:47 | 27.51108 | -106.58468 | 34978 ft | 567 kts | 129° |
| 2026-04-25 07:47 | 27.46578 | -106.51182 | 34980 ft | 567 kts | 129° |
| 2026-04-25 07:48 | 27.42051 | -106.43916 | 34968 ft | 566 kts | 129° |
| 2026-04-25 07:48 | 27.37520 | -106.36654 | 34956 ft | 565 kts | 129° |
| 2026-04-25 07:49 | 27.33011 | -106.29439 | 34942 ft | 563 kts | 129° |
| 2026-04-25 07:49 | 27.28503 | -106.22238 | 34942 ft | 563 kts | 129° |
| 2026-04-25 07:50 | 27.24015 | -106.15080 | 34936 ft | 564 kts | 129° |
| 2026-04-25 07:50 | 27.19482 | -106.07863 | 34939 ft | 565 kts | 129° |
| 2026-04-25 07:51 | 27.14942 | -106.00644 | 34938 ft | 566 kts | 129° |
| 2026-04-25 07:51 | 27.10395 | -105.93428 | 34943 ft | 566 kts | 129° |
| 2026-04-25 07:52 | 27.05840 | -105.86210 | 34928 ft | 566 kts | 129° |
| 2026-04-25 07:52 | 27.01296 | -105.79021 | 34927 ft | 564 kts | 129° |
| 2026-04-25 07:53 | 26.96757 | -105.71852 | 34912 ft | 563 kts | 129° |
| 2026-04-25 07:53 | 26.92219 | -105.64696 | 34918 ft | 563 kts | 129° |
| 2026-04-25 07:54 | 26.87686 | -105.57561 | 34910 ft | 567 kts | 129° |
| 2026-04-25 07:54 | 26.83100 | -105.50349 | 34918 ft | 568 kts | 129° |
| 2026-04-25 07:55 | 26.78514 | -105.43154 | 34913 ft | 567 kts | 129° |
| 2026-04-25 07:55 | 26.73925 | -105.35962 | 34913 ft | 567 kts | 129° |
| 2026-04-25 07:56 | 26.69343 | -105.28795 | 34907 ft | 567 kts | 129° |
| 2026-04-25 07:56 | 26.64760 | -105.21637 | 34900 ft | 565 kts | 129° |
| 2026-04-25 07:57 | 26.60189 | -105.14510 | 34898 ft | 565 kts | 129° |
| 2026-04-25 07:57 | 26.55631 | -105.07414 | 34903 ft | 567 kts | 129° |
| 2026-04-25 07:58 | 26.51031 | -105.00261 | 34905 ft | 566 kts | 129° |
| 2026-04-25 07:58 | 26.46431 | -104.93123 | 34907 ft | 565 kts | 129° |
| 2026-04-25 07:59 | 26.41895 | -104.86092 | 34900 ft | 563 kts | 129° |
| 2026-04-25 07:59 | 26.37346 | -104.79056 | 34896 ft | 563 kts | 129° |
| 2026-04-25 08:00 | 26.32747 | -104.71950 | 34902 ft | 565 kts | 129° |
| 2026-04-25 08:00 | 26.28138 | -104.64840 | 34905 ft | 565 kts | 129° |
| 2026-04-25 08:01 | 26.23528 | -104.57740 | 34904 ft | 565 kts | 129° |
| 2026-04-25 08:01 | 26.18914 | -104.50646 | 34905 ft | 565 kts | 129° |
| 2026-04-25 08:02 | 26.14324 | -104.43600 | 34895 ft | 565 kts | 129° |
| 2026-04-25 08:02 | 26.09701 | -104.36513 | 34894 ft | 566 kts | 129° |
| 2026-04-25 08:03 | 26.05066 | -104.29418 | 34884 ft | 566 kts | 129° |
| 2026-04-25 08:03 | 26.00428 | -104.22329 | 34895 ft | 567 kts | 130° |
| 2026-04-25 08:04 | 25.95782 | -104.15240 | 34879 ft | 566 kts | 129° |
| 2026-04-25 08:04 | 25.91144 | -104.08175 | 34886 ft | 566 kts | 129° |
| 2026-04-25 08:05 | 25.86508 | -104.01121 | 34871 ft | 564 kts | 130° |
| 2026-04-25 08:05 | 25.81889 | -103.94107 | 34878 ft | 567 kts | 130° |
| 2026-04-25 08:06 | 25.77228 | -103.87036 | 34861 ft | 567 kts | 130° |
| 2026-04-25 08:06 | 25.72566 | -103.79977 | 34861 ft | 566 kts | 130° |
| 2026-04-25 08:07 | 25.67917 | -103.72947 | 34859 ft | 564 kts | 130° |
| 2026-04-25 08:07 | 25.63256 | -103.65910 | 34845 ft | 565 kts | 130° |
| 2026-04-25 08:08 | 25.58603 | -103.58898 | 34845 ft | 566 kts | 129° |
| 2026-04-25 08:08 | 25.53940 | -103.51875 | 34844 ft | 565 kts | 129° |
| 2026-04-25 08:09 | 25.49287 | -103.44884 | 34843 ft | 563 kts | 129° |
| 2026-04-25 08:09 | 25.44637 | -103.37905 | 34840 ft | 563 kts | 129° |
| 2026-04-25 08:10 | 25.40061 | -103.31047 | 34846 ft | 564 kts | 129° |
| 2026-04-25 08:10 | 25.35389 | -103.24056 | 34848 ft | 565 kts | 129° |
| 2026-04-25 08:11 | 25.30719 | -103.17079 | 34854 ft | 564 kts | 129° |
| 2026-04-25 08:11 | 25.26048 | -103.10110 | 34859 ft | 564 kts | 129° |
| 2026-04-25 08:12 | 25.21375 | -103.03147 | 34859 ft | 565 kts | 129° |
| 2026-04-25 08:12 | 25.16694 | -102.96184 | 34868 ft | 564 kts | 129° |
| 2026-04-25 08:13 | 25.12007 | -102.89222 | 34866 ft | 564 kts | 129° |
| 2026-04-25 08:14 | 25.04975 | -102.78795 | 34860 ft | 564 kts | 129° |
| 2026-04-25 08:14 | 25.00282 | -102.71850 | 34855 ft | 564 kts | 129° |
| 2026-04-25 08:15 | 24.95623 | -102.64964 | 34863 ft | 564 kts | 129° |
| 2026-04-25 08:15 | 24.90935 | -102.58046 | 34857 ft | 563 kts | 129° |
| 2026-04-25 08:16 | 24.86243 | -102.51132 | 34859 ft | 563 kts | 129° |
| 2026-04-25 08:16 | 24.82346 | -102.45395 | 34853 ft | 563 kts | 129° |
| 2026-04-25 08:17 | 24.77654 | -102.38500 | 34861 ft | 562 kts | 129° |
| 2026-04-25 08:17 | 24.72960 | -102.31611 | 34866 ft | 563 kts | 129° |
| 2026-04-25 08:18 | 24.68249 | -102.24706 | 34874 ft | 565 kts | 129° |
| 2026-04-25 08:18 | 24.63527 | -102.17796 | 34868 ft | 565 kts | 129° |
| 2026-04-25 08:19 | 24.58807 | -102.10896 | 34870 ft | 563 kts | 129° |
| 2026-04-25 08:19 | 24.54096 | -102.04023 | 34870 ft | 563 kts | 129° |
| 2026-04-25 08:20 | 24.49416 | -101.97203 | 34861 ft | 563 kts | 129° |
| 2026-04-25 08:20 | 24.44705 | -101.90347 | 34860 ft | 562 kts | 129° |
| 2026-04-25 08:21 | 24.39990 | -101.83495 | 34870 ft | 562 kts | 129° |
| 2026-04-25 08:21 | 24.35270 | -101.76646 | 34868 ft | 562 kts | 129° |
| 2026-04-25 08:22 | 24.30547 | -101.69802 | 34875 ft | 562 kts | 129° |
| 2026-04-25 08:22 | 24.25821 | -101.62962 | 34876 ft | 562 kts | 129° |
| 2026-04-25 08:23 | 24.21093 | -101.56130 | 34880 ft | 563 kts | 129° |
| 2026-04-25 08:23 | 24.16384 | -101.49337 | 34880 ft | 563 kts | 130° |
| 2026-04-25 08:24 | 24.11272 | -101.42860 | 34884 ft | 562 kts | 134° |
| 2026-04-25 08:24 | 24.06130 | -101.36422 | 34879 ft | 561 kts | 134° |
| 2026-04-25 08:25 | 24.00981 | -101.29995 | 34886 ft | 560 kts | 134° |
| 2026-04-25 08:25 | 23.95844 | -101.23586 | 34859 ft | 558 kts | 134° |
| 2026-04-25 08:26 | 23.90720 | -101.17204 | 34862 ft | 558 kts | 134° |
| 2026-04-25 08:26 | 23.85614 | -101.10853 | 34864 ft | 559 kts | 134° |
| 2026-04-25 08:27 | 23.80460 | -101.04450 | 34863 ft | 560 kts | 134° |
| 2026-04-25 08:27 | 23.75312 | -100.98063 | 34864 ft | 561 kts | 134° |
| 2026-04-25 08:28 | 23.70154 | -100.91671 | 34868 ft | 561 kts | 134° |
| 2026-04-25 08:28 | 23.64994 | -100.85285 | 34848 ft | 559 kts | 134° |
| 2026-04-25 08:29 | 23.59881 | -100.78965 | 34857 ft | 557 kts | 134° |
| 2026-04-25 08:29 | 23.54741 | -100.72623 | 34861 ft | 559 kts | 134° |
| 2026-04-25 08:30 | 23.49584 | -100.66263 | 34850 ft | 559 kts | 134° |
| 2026-04-25 08:30 | 23.44420 | -100.59906 | 34857 ft | 560 kts | 134° |
| 2026-04-25 08:31 | 23.39286 | -100.53594 | 34855 ft | 560 kts | 134° |
| 2026-04-25 08:31 | 23.34129 | -100.47261 | 34832 ft | 557 kts | 134° |
| 2026-04-25 08:32 | 23.28994 | -100.40964 | 34836 ft | 556 kts | 134° |
| 2026-04-25 08:32 | 23.23858 | -100.34673 | 34825 ft | 556 kts | 134° |
| 2026-04-25 08:33 | 23.18715 | -100.28381 | 34836 ft | 555 kts | 134° |
| 2026-04-25 08:33 | 23.13580 | -100.22107 | 34829 ft | 556 kts | 134° |
| 2026-04-25 08:34 | 23.08436 | -100.15830 | 34845 ft | 556 kts | 134° |
| 2026-04-25 08:34 | 23.03303 | -100.09573 | 34838 ft | 554 kts | 134° |
| 2026-04-25 08:35 | 22.98171 | -100.03328 | 34845 ft | 555 kts | 134° |
| 2026-04-25 08:35 | 22.93026 | -99.97072 | 34849 ft | 556 kts | 134° |
| 2026-04-25 08:36 | 22.87896 | -99.90843 | 34840 ft | 556 kts | 134° |
| 2026-04-25 08:36 | 22.82750 | -99.84602 | 34840 ft | 555 kts | 134° |
| 2026-04-25 08:37 | 22.77609 | -99.78375 | 34829 ft | 553 kts | 134° |
| 2026-04-25 08:37 | 22.72483 | -99.72173 | 34828 ft | 552 kts | 134° |
| 2026-04-25 08:38 | 22.67356 | -99.65978 | 34817 ft | 552 kts | 134° |
| 2026-04-25 08:38 | 22.62226 | -99.59788 | 34816 ft | 552 kts | 134° |
| 2026-04-25 08:39 | 22.57085 | -99.53591 | 34806 ft | 553 kts | 134° |
| 2026-04-25 08:39 | 22.51964 | -99.47425 | 34806 ft | 553 kts | 134° |
| 2026-04-25 08:40 | 22.46815 | -99.41234 | 34809 ft | 552 kts | 134° |
| 2026-04-25 08:40 | 22.41674 | -99.35063 | 34791 ft | 551 kts | 134° |
| 2026-04-25 08:41 | 22.36537 | -99.28902 | 34792 ft | 551 kts | 134° |
| 2026-04-25 08:41 | 22.31427 | -99.22781 | 34769 ft | 552 kts | 134° |
| 2026-04-25 08:42 | 22.26281 | -99.16624 | 34775 ft | 552 kts | 134° |
| 2026-04-25 08:42 | 22.21130 | -99.10469 | 34778 ft | 551 kts | 134° |
| 2026-04-25 08:43 | 22.15999 | -99.04344 | 34756 ft | 546 kts | 134° |
| 2026-04-25 08:43 | 22.10907 | -98.98273 | 34755 ft | 546 kts | 134° |
| 2026-04-25 08:44 | 22.05797 | -98.92188 | 34758 ft | 548 kts | 134° |
| 2026-04-25 08:44 | 22.00678 | -98.86100 | 34759 ft | 548 kts | 134° |
| 2026-04-25 08:45 | 21.95544 | -98.80001 | 34764 ft | 549 kts | 134° |
| 2026-04-25 08:45 | 21.90409 | -98.73907 | 34763 ft | 548 kts | 134° |
| 2026-04-25 08:46 | 21.85294 | -98.67844 | 34760 ft | 545 kts | 134° |
| 2026-04-25 08:46 | 21.80227 | -98.61846 | 34755 ft | 544 kts | 134° |
| 2026-04-25 08:47 | 21.75129 | -98.55817 | 34756 ft | 544 kts | 134° |
| 2026-04-25 08:47 | 21.70026 | -98.49790 | 34758 ft | 545 kts | 134° |
| 2026-04-25 08:48 | 21.64914 | -98.43757 | 34765 ft | 546 kts | 134° |
| 2026-04-25 08:48 | 21.59788 | -98.37716 | 34767 ft | 547 kts | 134° |
| 2026-04-25 08:49 | 21.54690 | -98.31715 | 34777 ft | 545 kts | 134° |
| 2026-04-25 08:49 | 21.49576 | -98.25701 | 34769 ft | 544 kts | 134° |
| 2026-04-25 08:50 | 21.44468 | -98.19702 | 34769 ft | 544 kts | 134° |
| 2026-04-25 08:50 | 21.39365 | -98.13714 | 34767 ft | 544 kts | 134° |
| 2026-04-25 08:51 | 21.34258 | -98.07729 | 34776 ft | 544 kts | 134° |
| 2026-04-25 08:51 | 21.29178 | -98.01782 | 34776 ft | 544 kts | 134° |
| 2026-04-25 08:52 | 21.24062 | -97.95799 | 34778 ft | 544 kts | 134° |
| 2026-04-25 08:52 | 21.18934 | -97.89810 | 34784 ft | 545 kts | 134° |
| 2026-04-25 08:53 | 21.13797 | -97.83816 | 34785 ft | 546 kts | 134° |
| 2026-04-25 08:53 | 21.08650 | -97.77817 | 34784 ft | 546 kts | 134° |
| 2026-04-25 08:54 | 21.03545 | -97.71874 | 34775 ft | 545 kts | 134° |
| 2026-04-25 08:54 | 20.98412 | -97.65905 | 34774 ft | 545 kts | 134° |
| 2026-04-25 08:55 | 20.93284 | -97.59947 | 34765 ft | 543 kts | 134° |
| 2026-04-25 08:55 | 20.88193 | -97.54040 | 34760 ft | 544 kts | 134° |
| 2026-04-25 08:56 | 20.83054 | -97.48084 | 34768 ft | 546 kts | 134° |
| 2026-04-25 08:56 | 20.77894 | -97.42107 | 34770 ft | 546 kts | 134° |
| 2026-04-25 08:57 | 20.72743 | -97.36150 | 34771 ft | 545 kts | 134° |
| 2026-04-25 08:57 | 20.67594 | -97.30200 | 34773 ft | 545 kts | 134° |
| 2026-04-25 08:58 | 20.62486 | -97.24306 | 34752 ft | 544 kts | 135° |
| 2026-04-25 08:58 | 20.57349 | -97.18383 | 34752 ft | 543 kts | 135° |
| 2026-04-25 08:59 | 20.52202 | -97.12455 | 34747 ft | 543 kts | 135° |
| 2026-04-25 08:59 | 20.47059 | -97.06537 | 34749 ft | 544 kts | 135° |
| 2026-04-25 09:00 | 20.41937 | -97.00651 | 34753 ft | 544 kts | 135° |
| 2026-04-25 09:00 | 20.36781 | -96.94732 | 34744 ft | 545 kts | 135° |
| 2026-04-25 09:01 | 20.31619 | -96.88812 | 34748 ft | 545 kts | 134° |
| 2026-04-25 09:01 | 20.26462 | -96.82903 | 34737 ft | 544 kts | 135° |
| 2026-04-25 09:02 | 20.21320 | -96.77018 | 34737 ft | 541 kts | 135° |
| 2026-04-25 09:02 | 20.16485 | -96.70929 | 34760 ft | 543 kts | 129° |
| 2026-04-25 09:03 | 20.11829 | -96.64562 | 34758 ft | 545 kts | 129° |
| 2026-04-25 09:03 | 20.07139 | -96.58215 | 34771 ft | 545 kts | 129° |
| 2026-04-25 09:04 | 20.02472 | -96.51869 | 34755 ft | 545 kts | 129° |
| 2026-04-25 09:04 | 19.98572 | -96.46589 | 34751 ft | 544 kts | 129° |
| 2026-04-25 09:05 | 19.93897 | -96.40258 | 34761 ft | 542 kts | 130° |
| 2026-04-25 09:05 | 19.89242 | -96.33961 | 34741 ft | 542 kts | 130° |
| 2026-04-25 09:06 | 19.84571 | -96.27650 | 34745 ft | 544 kts | 130° |
| 2026-04-25 09:06 | 19.79888 | -96.21329 | 34739 ft | 545 kts | 130° |
| 2026-04-25 09:07 | 19.75225 | -96.15042 | 34744 ft | 546 kts | 130° |
| 2026-04-25 09:07 | 19.70528 | -96.08715 | 34745 ft | 544 kts | 130° |
| 2026-04-25 09:08 | 19.65843 | -96.02413 | 34732 ft | 541 kts | 130° |
| 2026-04-25 09:08 | 19.61177 | -95.96140 | 34730 ft | 541 kts | 130° |
| 2026-04-25 09:09 | 19.56516 | -95.89882 | 34726 ft | 541 kts | 130° |
| 2026-04-25 09:09 | 19.51852 | -95.83626 | 34725 ft | 541 kts | 130° |
| 2026-04-25 09:10 | 19.47184 | -95.77372 | 34726 ft | 541 kts | 130° |
| 2026-04-25 09:10 | 19.42509 | -95.71115 | 34721 ft | 540 kts | 130° |
| 2026-04-25 09:11 | 19.35543 | -95.61803 | 34726 ft | 539 kts | 130° |
| 2026-04-25 09:11 | 19.30888 | -95.55588 | 34725 ft | 539 kts | 130° |
| 2026-04-25 09:12 | 19.26224 | -95.49368 | 34729 ft | 540 kts | 130° |
| 2026-04-25 09:12 | 19.21543 | -95.43131 | 34732 ft | 541 kts | 130° |
| 2026-04-25 09:13 | 19.16853 | -95.36889 | 34733 ft | 542 kts | 130° |
| 2026-04-25 09:13 | 19.12190 | -95.30689 | 34730 ft | 540 kts | 130° |
| 2026-04-25 09:14 | 19.07517 | -95.24482 | 34730 ft | 539 kts | 130° |
| 2026-04-25 09:14 | 19.02847 | -95.18285 | 34727 ft | 537 kts | 130° |
| 2026-04-25 09:15 | 18.98205 | -95.12132 | 34725 ft | 536 kts | 130° |
| 2026-04-25 09:15 | 18.93542 | -95.05959 | 34731 ft | 538 kts | 130° |
| 2026-04-25 09:16 | 18.88859 | -94.99762 | 34745 ft | 539 kts | 130° |
| 2026-04-25 09:16 | 18.84184 | -94.93585 | 34747 ft | 538 kts | 130° |
| 2026-04-25 09:17 | 18.77195 | -94.84361 | 34751 ft | 535 kts | 130° |
| 2026-04-25 09:18 | 18.72539 | -94.78224 | 34756 ft | 536 kts | 130° |
| 2026-04-25 09:18 | 18.67903 | -94.72120 | 34748 ft | 536 kts | 130° |
| 2026-04-25 09:19 | 18.63258 | -94.66006 | 34755 ft | 534 kts | 130° |
| 2026-04-25 09:19 | 18.58577 | -94.59857 | 34760 ft | 538 kts | 130° |
| 2026-04-25 09:20 | 18.53914 | -94.53730 | 34762 ft | 533 kts | 130° |
| 2026-04-25 09:20 | 18.49277 | -94.47651 | 34761 ft | 532 kts | 130° |
| 2026-04-25 09:21 | 18.44671 | -94.41612 | 34765 ft | 533 kts | 130° |
| 2026-04-25 09:21 | 18.40007 | -94.35507 | 34769 ft | 534 kts | 130° |
| 2026-04-25 09:22 | 18.35346 | -94.29409 | 34775 ft | 533 kts | 130° |
| 2026-04-25 09:22 | 18.30708 | -94.23348 | 34772 ft | 530 kts | 130° |
| 2026-04-25 09:23 | 18.26081 | -94.17307 | 34772 ft | 530 kts | 130° |
| 2026-04-25 09:23 | 18.21437 | -94.11250 | 34780 ft | 533 kts | 130° |
| 2026-04-25 09:24 | 18.16807 | -94.05217 | 34777 ft | 533 kts | 130° |
| 2026-04-25 09:24 | 18.12146 | -93.99149 | 34780 ft | 533 kts | 130° |
| 2026-04-25 09:25 | 18.07473 | -93.93071 | 34782 ft | 533 kts | 130° |
| 2026-04-25 09:25 | 18.02805 | -93.87005 | 34782 ft | 533 kts | 130° |
| 2026-04-25 09:26 | 17.98142 | -93.80952 | 34785 ft | 533 kts | 130° |
| 2026-04-25 09:26 | 17.93504 | -93.74937 | 34779 ft | 534 kts | 130° |
| 2026-04-25 09:27 | 17.88818 | -93.68864 | 34782 ft | 535 kts | 130° |
| 2026-04-25 09:27 | 17.84125 | -93.62788 | 34785 ft | 536 kts | 130° |
| 2026-04-25 09:28 | 17.79432 | -93.56718 | 34783 ft | 534 kts | 130° |
| 2026-04-25 09:28 | 17.74755 | -93.50674 | 34779 ft | 533 kts | 130° |
| 2026-04-25 09:29 | 17.70084 | -93.44644 | 34773 ft | 531 kts | 130° |
| 2026-04-25 09:29 | 17.65451 | -93.38668 | 34765 ft | 526 kts | 130° |
| 2026-04-25 09:30 | 17.60820 | -93.32702 | 34777 ft | 528 kts | 130° |
| 2026-04-25 09:30 | 17.56171 | -93.26715 | 34799 ft | 530 kts | 130° |
| 2026-04-25 09:31 | 17.51545 | -93.20764 | 34800 ft | 529 kts | 131° |
| 2026-04-25 09:31 | 17.46900 | -93.14794 | 34804 ft | 528 kts | 131° |
| 2026-04-25 09:32 | 17.42265 | -93.08842 | 34829 ft | 527 kts | 131° |
| 2026-04-25 09:32 | 17.37635 | -93.02903 | 34840 ft | 526 kts | 131° |
| 2026-04-25 09:33 | 17.32998 | -92.96959 | 34835 ft | 527 kts | 130° |
| 2026-04-25 09:33 | 17.28351 | -92.91008 | 34875 ft | 529 kts | 130° |
| 2026-04-25 09:34 | 17.23690 | -92.85044 | 34878 ft | 529 kts | 130° |
| 2026-04-25 09:34 | 17.19061 | -92.79126 | 34880 ft | 528 kts | 130° |
| 2026-04-25 09:35 | 17.14414 | -92.73190 | 34920 ft | 526 kts | 130° |
| 2026-04-25 09:35 | 17.09770 | -92.67264 | 34919 ft | 527 kts | 130° |
| 2026-04-25 09:36 | 17.05112 | -92.61324 | 34922 ft | 529 kts | 131° |
| 2026-04-25 09:36 | 17.00447 | -92.55381 | 34942 ft | 526 kts | 131° |
| 2026-04-25 09:37 | 16.95842 | -92.49520 | 34947 ft | 525 kts | 131° |
| 2026-04-25 09:37 | 16.91204 | -92.43621 | 34937 ft | 525 kts | 131° |
| 2026-04-25 09:38 | 16.86552 | -92.37709 | 34969 ft | 526 kts | 131° |
| 2026-04-25 09:38 | 16.81906 | -92.31811 | 34971 ft | 526 kts | 131° |
| 2026-04-25 09:39 | 16.77255 | -92.25912 | 34959 ft | 526 kts | 131° |
| 2026-04-25 09:39 | 16.72643 | -92.20066 | 34987 ft | 524 kts | 131° |
| 2026-04-25 09:40 | 16.65696 | -92.11269 | 34965 ft | 521 kts | 131° |
| 2026-04-25 09:40 | 16.61085 | -92.05439 | 34981 ft | 522 kts | 131° |
| 2026-04-25 09:41 | 16.56455 | -91.99587 | 34980 ft | 522 kts | 131° |
| 2026-04-25 09:41 | 16.51832 | -91.93750 | 34963 ft | 522 kts | 131° |
| 2026-04-25 09:42 | 16.47204 | -91.87911 | 34981 ft | 522 kts | 131° |
| 2026-04-25 09:42 | 16.42596 | -91.82102 | 34966 ft | 524 kts | 131° |
| 2026-04-25 09:43 | 16.37944 | -91.76243 | 34971 ft | 525 kts | 131° |
| 2026-04-25 09:43 | 16.33289 | -91.70384 | 34976 ft | 523 kts | 131° |
| 2026-04-25 09:44 | 16.28657 | -91.64560 | 34958 ft | 522 kts | 131° |
| 2026-04-25 09:44 | 16.24024 | -91.58738 | 34952 ft | 520 kts | 131° |
| 2026-04-25 09:45 | 16.19402 | -91.52936 | 34978 ft | 521 kts | 131° |
| 2026-04-25 09:45 | 16.14807 | -91.47171 | 34960 ft | 520 kts | 131° |
| 2026-04-25 09:46 | 16.10185 | -91.41378 | 34958 ft | 520 kts | 131° |
| 2026-04-25 09:46 | 16.05552 | -91.35587 | 34966 ft | 521 kts | 131° |
| 2026-04-25 09:47 | 16.00863 | -91.29801 | 34971 ft | 523 kts | 131° |
| 2026-04-25 09:47 | 15.96200 | -91.24012 | 34970 ft | 519 kts | 131° |
| 2026-04-25 09:48 | 15.91596 | -91.18323 | 34972 ft | 517 kts | 131° |
| 2026-04-25 09:48 | 15.86957 | -91.12585 | 34970 ft | 518 kts | 131° |
| 2026-04-25 09:49 | 15.82307 | -91.06842 | 34951 ft | 519 kts | 131° |
| 2026-04-25 09:49 | 15.77649 | -91.01092 | 34996 ft | 520 kts | 131° |
| 2026-04-25 09:50 | 15.72993 | -90.95349 | 34995 ft | 519 kts | 131° |
| 2026-04-25 09:50 | 15.68375 | -90.89658 | 34977 ft | 518 kts | 131° |
| 2026-04-25 09:51 | 15.63732 | -90.83941 | 35009 ft | 517 kts | 131° |
| 2026-04-25 09:51 | 15.59101 | -90.78242 | 35008 ft | 516 kts | 131° |
| 2026-04-25 09:52 | 15.54458 | -90.72535 | 35007 ft | 519 kts | 131° |
| 2026-04-25 09:52 | 15.50570 | -90.67756 | 35013 ft | 521 kts | 131° |
| 2026-04-25 09:53 | 15.45888 | -90.62007 | 35052 ft | 522 kts | 131° |
| 2026-04-25 09:53 | 15.41213 | -90.56272 | 35057 ft | 520 kts | 131° |
| 2026-04-25 09:54 | 15.36549 | -90.50555 | 35053 ft | 519 kts | 131° |
| 2026-04-25 09:54 | 15.31876 | -90.44830 | 35082 ft | 521 kts | 131° |
| 2026-04-25 09:55 | 15.27186 | -90.39089 | 35078 ft | 521 kts | 131° |
| 2026-04-25 09:55 | 15.22515 | -90.33376 | 35077 ft | 518 kts | 131° |
| 2026-04-25 09:56 | 15.17864 | -90.27691 | 35061 ft | 517 kts | 131° |
| 2026-04-25 09:56 | 15.13215 | -90.22013 | 35059 ft | 517 kts | 131° |
| 2026-04-25 09:57 | 15.08557 | -90.16329 | 35058 ft | 518 kts | 131° |
| 2026-04-25 09:57 | 15.03892 | -90.10639 | 35044 ft | 518 kts | 131° |
| 2026-04-25 09:58 | 14.99221 | -90.04947 | 35063 ft | 519 kts | 131° |
| 2026-04-25 09:58 | 14.94542 | -89.99249 | 35023 ft | 519 kts | 131° |
| 2026-04-25 09:59 | 14.89895 | -89.93595 | 35022 ft | 518 kts | 131° |
| 2026-04-25 09:59 | 14.85249 | -89.87945 | 35015 ft | 515 kts | 131° |
| 2026-04-25 10:00 | 14.80604 | -89.82302 | 35015 ft | 516 kts | 131° |
| 2026-04-25 10:00 | 14.75950 | -89.76651 | 35017 ft | 517 kts | 131° |
| 2026-04-25 10:01 | 14.71279 | -89.70984 | 35020 ft | 518 kts | 131° |
| 2026-04-25 10:01 | 14.66610 | -89.65323 | 34997 ft | 517 kts | 131° |
| 2026-04-25 10:02 | 14.61948 | -89.59674 | 35000 ft | 516 kts | 131° |
| 2026-04-25 10:02 | 14.57294 | -89.54040 | 34974 ft | 515 kts | 131° |
| 2026-04-25 10:03 | 14.52642 | -89.48412 | 34971 ft | 515 kts | 131° |
| 2026-04-25 10:03 | 14.47988 | -89.42786 | 34974 ft | 516 kts | 131° |
| 2026-04-25 10:04 | 14.43358 | -89.37192 | 34961 ft | 516 kts | 131° |
| 2026-04-25 10:04 | 14.38683 | -89.31548 | 34966 ft | 517 kts | 131° |
| 2026-04-25 10:05 | 14.34006 | -89.25905 | 34959 ft | 518 kts | 131° |
| 2026-04-25 10:05 | 14.29317 | -89.20253 | 34949 ft | 520 kts | 131° |
| 2026-04-25 10:06 | 14.24618 | -89.14592 | 34948 ft | 518 kts | 131° |
| 2026-04-25 10:06 | 14.19939 | -89.08959 | 34925 ft | 516 kts | 131° |
| 2026-04-25 10:07 | 14.15275 | -89.03348 | 34910 ft | 514 kts | 131° |
| 2026-04-25 10:07 | 14.10643 | -88.97780 | 34911 ft | 515 kts | 131° |
| 2026-04-25 10:08 | 14.05974 | -88.92171 | 34892 ft | 516 kts | 131° |
| 2026-04-25 10:08 | 14.01292 | -88.86550 | 34894 ft | 517 kts | 131° |
| 2026-04-25 10:09 | 13.96603 | -88.80924 | 34898 ft | 518 kts | 131° |
| 2026-04-25 10:09 | 13.91911 | -88.75298 | 34895 ft | 517 kts | 131° |
| 2026-04-25 10:10 | 13.87224 | -88.69683 | 34895 ft | 516 kts | 131° |
| 2026-04-25 10:10 | 13.82548 | -88.64085 | 34904 ft | 515 kts | 131° |
| 2026-04-25 10:11 | 13.77882 | -88.58501 | 34894 ft | 514 kts | 131° |
| 2026-04-25 10:11 | 13.73211 | -88.52916 | 34909 ft | 515 kts | 131° |
| 2026-04-25 10:12 | 13.68557 | -88.47356 | 34908 ft | 516 kts | 131° |
| 2026-04-25 10:13 | 13.61499 | -88.38929 | 34914 ft | 518 kts | 131° |
| 2026-04-25 10:13 | 13.56796 | -88.33319 | 34914 ft | 517 kts | 131° |
| 2026-04-25 10:14 | 13.52108 | -88.27730 | 34921 ft | 515 kts | 131° |
| 2026-04-25 10:14 | 13.47435 | -88.22163 | 34907 ft | 514 kts | 131° |
| 2026-04-25 10:15 | 13.42785 | -88.16627 | 34906 ft | 514 kts | 131° |
| 2026-04-25 10:15 | 13.38103 | -88.11057 | 34911 ft | 515 kts | 131° |
| 2026-04-25 10:16 | 13.33412 | -88.05480 | 34910 ft | 516 kts | 131° |
| 2026-04-25 10:16 | 13.28715 | -87.99898 | 34911 ft | 516 kts | 131° |
| 2026-04-25 10:17 | 13.24022 | -87.94325 | 34925 ft | 517 kts | 131° |
| 2026-04-25 10:17 | 13.19341 | -87.88770 | 34917 ft | 517 kts | 131° |
| 2026-04-25 10:18 | 13.14636 | -87.83190 | 34921 ft | 516 kts | 131° |
| 2026-04-25 10:18 | 13.09944 | -87.77629 | 34923 ft | 514 kts | 130° |
| 2026-04-25 10:19 | 13.05268 | -87.72091 | 34919 ft | 513 kts | 130° |
| 2026-04-25 10:19 | 13.00594 | -87.66558 | 34908 ft | 514 kts | 130° |
| 2026-04-25 10:20 | 12.95913 | -87.61020 | 34916 ft | 514 kts | 131° |
| 2026-04-25 10:20 | 12.91230 | -87.55484 | 34930 ft | 514 kts | 131° |
| 2026-04-25 10:21 | 12.86548 | -87.49952 | 34923 ft | 514 kts | 131° |
| 2026-04-25 10:21 | 12.81886 | -87.44448 | 34923 ft | 514 kts | 131° |
| 2026-04-25 10:22 | 12.77193 | -87.38910 | 34931 ft | 515 kts | 131° |
| 2026-04-25 10:22 | 12.72489 | -87.33362 | 34919 ft | 517 kts | 131° |
| 2026-04-25 10:23 | 12.67761 | -87.27791 | 34928 ft | 518 kts | 131° |
| 2026-04-25 10:23 | 12.63025 | -87.22213 | 34935 ft | 518 kts | 131° |
| 2026-04-25 10:24 | 12.58289 | -87.16638 | 34929 ft | 518 kts | 131° |
| 2026-04-25 10:24 | 12.53553 | -87.11066 | 34923 ft | 518 kts | 131° |
| 2026-04-25 10:25 | 12.48849 | -87.05536 | 34931 ft | 518 kts | 131° |
| 2026-04-25 10:25 | 12.44114 | -86.99972 | 34927 ft | 518 kts | 131° |
| 2026-04-25 10:26 | 12.39378 | -86.94411 | 34927 ft | 518 kts | 131° |
| 2026-04-25 10:26 | 12.34616 | -86.88823 | 34922 ft | 526 kts | 132° |
| 2026-04-25 10:27 | 12.29794 | -86.83167 | 34917 ft | 527 kts | 132° |
| 2026-04-25 10:27 | 12.24983 | -86.77528 | 34908 ft | 525 kts | 132° |
| 2026-04-25 10:28 | 12.20188 | -86.71912 | 34905 ft | 524 kts | 132° |
| 2026-04-25 10:28 | 12.15392 | -86.66297 | 34898 ft | 524 kts | 132° |
| 2026-04-25 10:29 | 12.10620 | -86.60714 | 34912 ft | 526 kts | 132° |
| 2026-04-25 10:29 | 12.05800 | -86.55077 | 34911 ft | 527 kts | 132° |
| 2026-04-25 10:30 | 12.00973 | -86.49435 | 34905 ft | 528 kts | 133° |
| 2026-04-25 10:30 | 11.96111 | -86.43758 | 34916 ft | 531 kts | 133° |
| 2026-04-25 10:31 | 11.91254 | -86.38088 | 34919 ft | 530 kts | 133° |
| 2026-04-25 10:31 | 11.86442 | -86.32474 | 34915 ft | 529 kts | 133° |
| 2026-04-25 10:32 | 11.81592 | -86.26821 | 34913 ft | 528 kts | 133° |
| 2026-04-25 10:32 | 11.76757 | -86.21187 | 34911 ft | 527 kts | 133° |
| 2026-04-25 10:33 | 11.71902 | -86.15533 | 34901 ft | 528 kts | 133° |
| 2026-04-25 10:33 | 11.67073 | -86.09913 | 34904 ft | 530 kts | 133° |
| 2026-04-25 10:34 | 11.62204 | -86.04250 | 34906 ft | 532 kts | 133° |
| 2026-04-25 10:34 | 11.57319 | -85.98570 | 34902 ft | 531 kts | 133° |
| 2026-04-25 10:35 | 11.52446 | -85.92909 | 34902 ft | 530 kts | 133° |
| 2026-04-25 10:35 | 11.47589 | -85.87269 | 34900 ft | 529 kts | 133° |
| 2026-04-25 10:36 | 11.42764 | -85.81670 | 34902 ft | 529 kts | 133° |
| 2026-04-25 10:36 | 11.37897 | -85.76025 | 34902 ft | 531 kts | 133° |
| 2026-04-25 10:37 | 11.33008 | -85.70358 | 34904 ft | 532 kts | 133° |
| 2026-04-25 10:37 | 11.28124 | -85.64699 | 34906 ft | 531 kts | 133° |
| 2026-04-25 10:38 | 11.23246 | -85.59050 | 34906 ft | 530 kts | 133° |
| 2026-04-25 10:38 | 11.18407 | -85.53451 | 34907 ft | 528 kts | 133° |
| 2026-04-25 10:39 | 11.13586 | -85.47810 | 34910 ft | 529 kts | 132° |
| 2026-04-25 10:39 | 11.08805 | -85.42102 | 34901 ft | 530 kts | 132° |
| 2026-04-25 10:40 | 11.04792 | -85.37389 | 34909 ft | 529 kts | 132° |
| 2026-04-25 10:40 | 11.00000 | -85.31705 | 34912 ft | 528 kts | 132° |
| 2026-04-25 10:41 | 10.95205 | -85.26049 | 34918 ft | 527 kts | 132° |
| 2026-04-25 10:41 | 10.90417 | -85.20390 | 34915 ft | 527 kts | 132° |
| 2026-04-25 10:42 | 10.85621 | -85.14732 | 34920 ft | 528 kts | 132° |
| 2026-04-25 10:42 | 10.80814 | -85.09062 | 34916 ft | 529 kts | 132° |
| 2026-04-25 10:43 | 10.76027 | -85.03418 | 34919 ft | 530 kts | 132° |
| 2026-04-25 10:43 | 10.71216 | -84.97750 | 34918 ft | 528 kts | 132° |
| 2026-04-25 10:44 | 10.66417 | -84.92097 | 34929 ft | 527 kts | 132° |
| 2026-04-25 10:44 | 10.61620 | -84.86452 | 34923 ft | 526 kts | 132° |
| 2026-04-25 10:45 | 10.56830 | -84.80816 | 34910 ft | 527 kts | 132° |
| 2026-04-25 10:45 | 10.52028 | -84.75170 | 34927 ft | 528 kts | 133° |
| 2026-04-25 10:46 | 10.47258 | -84.69564 | 34930 ft | 527 kts | 133° |
| 2026-04-25 10:46 | 10.42464 | -84.63933 | 34928 ft | 527 kts | 133° |
| 2026-04-25 10:47 | 10.37653 | -84.58284 | 34942 ft | 529 kts | 133° |
| 2026-04-25 10:47 | 10.32829 | -84.52624 | 34947 ft | 529 kts | 133° |
| 2026-04-25 10:48 | 10.28006 | -84.46968 | 34948 ft | 530 kts | 133° |
| 2026-04-25 10:48 | 10.23182 | -84.41313 | 34949 ft | 529 kts | 133° |
| 2026-04-25 10:49 | 10.18364 | -84.35669 | 35004 ft | 529 kts | 133° |
| 2026-04-25 10:49 | 10.13577 | -84.30063 | 35025 ft | 527 kts | 132° |
| 2026-04-25 10:50 | 10.08780 | -84.24447 | 35045 ft | 524 kts | 132° |
| 2026-04-25 10:50 | 10.04008 | -84.18865 | 35044 ft | 523 kts | 132° |
| 2026-04-25 10:51 | 9.99255 | -84.13307 | 35049 ft | 525 kts | 132° |
| 2026-04-25 10:51 | 9.94462 | -84.07706 | 35037 ft | 526 kts | 132° |
| 2026-04-25 10:52 | 9.89664 | -84.02100 | 35032 ft | 526 kts | 132° |
| 2026-04-25 10:52 | 9.84864 | -83.96496 | 35018 ft | 525 kts | 132° |
| 2026-04-25 10:53 | 9.80067 | -83.90897 | 35004 ft | 525 kts | 132° |
| 2026-04-25 10:53 | 9.75286 | -83.85321 | 35006 ft | 521 kts | 132° |
| 2026-04-25 10:54 | 9.70554 | -83.79803 | 35016 ft | 518 kts | 132° |
| 2026-04-25 10:54 | 9.65846 | -83.74318 | 35015 ft | 519 kts | 132° |
| 2026-04-25 10:55 | 9.61105 | -83.68794 | 35008 ft | 520 kts | 132° |
| 2026-04-25 10:55 | 9.56351 | -83.63260 | 35009 ft | 520 kts | 132° |
| 2026-04-25 10:56 | 9.51601 | -83.57732 | 35015 ft | 520 kts | 132° |
| 2026-04-25 10:56 | 9.46843 | -83.52197 | 35002 ft | 520 kts | 132° |
| 2026-04-25 10:57 | 9.42095 | -83.46677 | 34996 ft | 519 kts | 132° |
| 2026-04-25 10:57 | 9.37358 | -83.41171 | 34997 ft | 517 kts | 132° |
| 2026-04-25 10:58 | 9.32627 | -83.35675 | 34996 ft | 518 kts | 132° |
| 2026-04-25 10:58 | 9.27919 | -83.30209 | 34989 ft | 519 kts | 132° |
| 2026-04-25 10:59 | 9.23170 | -83.24698 | 34992 ft | 519 kts | 132° |
| 2026-04-25 10:59 | 9.18417 | -83.19184 | 34994 ft | 519 kts | 132° |
| 2026-04-25 11:00 | 9.13658 | -83.13666 | 35002 ft | 519 kts | 132° |
| 2026-04-25 11:00 | 9.08915 | -83.08168 | 35000 ft | 517 kts | 132° |
| 2026-04-25 11:01 | 9.04221 | -83.02730 | 34998 ft | 516 kts | 132° |
| 2026-04-25 11:01 | 8.99483 | -82.97243 | 34996 ft | 518 kts | 131° |
| 2026-04-25 11:02 | 8.94732 | -82.91743 | 34997 ft | 519 kts | 131° |
| 2026-04-25 11:02 | 8.89977 | -82.86242 | 35000 ft | 519 kts | 131° |
| 2026-04-25 11:03 | 8.85218 | -82.80741 | 35053 ft | 520 kts | 132° |